Time;durP1;ratioP1;P1;durP2;ratioP2;P2;SDS_P1;SDS_P2;PMS_P1;PMS_P2;Temp;Humidity;BMP_temperature;BMP_pressure;BME280_temperature;BME280_humidity;BME280_pressure;Samples;Min_cycle;Max_cycle;Signal;HPM_P1;HPM_P2
2022/01/21 00:01:24;;;;;;;1.00;0.30;;;3.90;36.20;;;;;;5073668;28;20687;-49
2022/01/21 00:03:50;;;;;;;1.90;0.57;;;3.90;36.10;;;;;;5073524;28;20181;-49
2022/01/21 00:06:16;;;;;;;1.30;1.02;;;4.00;36.00;;;;;;5071176;28;20178;-49
2022/01/21 00:08:44;;;;;;;0.90;0.30;;;4.00;35.90;;;;;;5073334;28;20193;-49
2022/01/21 00:11:12;;;;;;;5.70;0.60;;;4.00;36.00;;;;;;5073377;28;20177;-49
2022/01/21 00:13:38;;;;;;;0.90;0.30;;;4.00;36.00;;;;;;5073549;28;20254;-49
2022/01/21 00:16:08;;;;;;;1.17;0.40;;;3.90;35.80;;;;;;5073605;28;20172;-49
2022/01/21 00:18:37;;;;;;;1.10;0.30;;;3.90;36.00;;;;;;5073448;28;20172;-49
2022/01/21 00:32:16;;;;;;;1.00;0.47;;;3.60;36.30;;;;;;5073277;28;20531;-49
2022/01/21 00:34:42;;;;;;;9.10;0.90;;;3.60;35.90;;;;;;5073279;28;20260;-49
2022/01/21 00:37:08;;;;;;;1.17;0.30;;;3.50;36.20;;;;;;5073167;28;20624;-49
2022/01/21 00:39:35;;;;;;;1.37;0.50;;;3.60;36.10;;;;;;5073127;28;20570;-49
2022/01/21 00:44:29;;;;;;;1.00;0.30;;;3.50;35.90;;;;;;5073110;28;20205;-49
2022/01/21 00:47:14;;;;;;;0.90;0.20;;;3.50;36.20;;;;;;5073045;28;20603;-49
2022/01/21 00:49:39;;;;;;;3.30;0.45;;;3.50;36.00;;;;;;5072483;28;20249;-49
2022/01/21 00:52:05;;;;;;;1.07;0.50;;;3.50;36.20;;;;;;5071747;28;20540;-49
2022/01/21 00:54:31;;;;;;;0.90;0.20;;;3.40;36.20;;;;;;5073010;28;20210;-49
2022/01/21 00:56:57;;;;;;;0.90;0.23;;;3.30;36.40;;;;;;5073143;28;20406;-49
2022/01/21 00:59:22;;;;;;;1.20;0.50;;;3.40;36.30;;;;;;5072961;28;20747;-49
2022/01/21 01:01:48;;;;;;;0.90;0.33;;;3.40;36.10;;;;;;5072950;28;20250;-49
2022/01/21 01:04:14;;;;;;;1.10;0.60;;;3.40;36.30;;;;;;5072937;28;20532;-49
2022/01/21 01:06:40;;;;;;;1.00;0.30;;;4.50;36.70;;;;;;5072854;28;20508;-49
2022/01/21 01:09:05;;;;;;;1.00;0.40;;;3.50;36.80;;;;;;5072865;28;20203;-49
2022/01/21 01:22:11;;;;;;;0.90;0.22;;;3.80;36.40;;;;;;5076269;28;20230;-48
2022/01/21 01:29:57;;;;;;;1.10;0.43;;;3.40;36.40;;;;;;5076156;28;20202;-48
2022/01/21 01:32:25;;;;;;;1.10;0.50;;;3.40;36.10;;;;;;5074806;28;20169;-48
2022/01/21 01:34:51;;;;;;;1.20;0.40;;;3.50;35.90;;;;;;5076142;28;20198;-48
2022/01/21 01:37:58;;;;;;;0.98;0.43;;;4.00;35.90;;;;;;5076235;28;20177;-48
2022/01/21 01:40:29;;;;;;;0.90;0.30;;;3.50;35.60;;;;;;5075651;28;20216;-48
2022/01/21 01:50:56;;;;;;;0.90;0.25;;;3.60;35.60;;;;;;5075904;28;20547;-48
2022/01/21 01:53:29;;;;;;;0.90;0.30;;;3.50;34.90;;;;;;5075757;28;20218;-48
2022/01/21 01:55:56;;;;;;;0.90;0.30;;;3.40;35.00;;;;;;5075637;28;20233;-48
2022/01/21 01:58:22;;;;;;;4.93;1.48;;;3.50;35.40;;;;;;5075601;28;20628;-48
2022/01/21 02:00:48;;;;;;;2.13;0.43;;;3.50;35.00;;;;;;5075828;28;20238;-48
2022/01/21 02:03:15;;;;;;;0.90;0.33;;;3.50;35.10;;;;;;5075551;28;20161;-48
2022/01/21 02:05:44;;;;;;;2.40;1.60;;;3.50;34.80;;;;;;5074217;28;20185;-48
2022/01/21 02:08:11;;;;;;;0.90;0.30;;;3.40;34.80;;;;;;5075411;28;20204;-48
2022/01/21 02:10:37;;;;;;;2.70;0.70;;;3.50;34.90;;;;;;5075411;28;20169;-48
2022/01/21 02:13:19;;;;;;;0.90;0.30;;;4.70;35.70;;;;;;5075340;28;20172;-48
2022/01/21 02:21:30;;;;;;;1.83;1.15;;;3.40;35.10;;;;;;5075016;28;20227;-48
2022/01/21 02:24:01;;;;;;;1.10;0.40;;;3.40;35.00;;;;;;5075244;28;20228;-48
2022/01/21 02:26:28;;;;;;;1.00;0.40;;;3.50;35.20;;;;;;5075173;28;20214;-48
2022/01/21 02:28:55;;;;;;;1.40;0.40;;;3.50;35.00;;;;;;5072891;28;20698;-48
2022/01/21 02:31:21;;;;;;;0.90;0.30;;;3.50;35.00;;;;;;5075047;28;20284;-48
2022/01/21 02:33:48;;;;;;;0.90;0.30;;;3.50;34.70;;;;;;5074954;28;20177;-48
2022/01/21 02:36:14;;;;;;;2.35;0.52;;;3.50;34.60;;;;;;5074853;28;20175;-48
2022/01/21 02:38:39;;;;;;;2.93;0.30;;;4.70;35.00;;;;;;5074857;28;20512;-48
2022/01/21 02:41:06;;;;;;;1.20;0.40;;;3.50;34.50;;;;;;5073544;28;20477;-48
2022/01/21 02:43:32;;;;;;;1.20;0.40;;;3.30;34.90;;;;;;5075046;28;20172;-48
2022/01/21 02:46:03;;;;;;;0.90;0.30;;;3.30;35.10;;;;;;5074798;28;20230;-48
2022/01/21 02:48:29;;;;;;;0.90;0.20;;;4.30;35.40;;;;;;5074849;28;20200;-49
2022/01/21 02:50:55;;;;;;;0.90;0.30;;;4.50;35.40;;;;;;5074499;28;20548;-49
2022/01/21 02:53:28;;;;;;;1.00;0.50;;;3.50;34.20;;;;;;5074591;28;20169;-48
2022/01/21 02:55:53;;;;;;;0.90;0.20;;;3.40;35.00;;;;;;5074505;28;20195;-48
2022/01/21 02:58:19;;;;;;;0.90;0.30;;;3.40;34.80;;;;;;5074723;28;20173;-49
2022/01/21 03:00:45;;;;;;;1.00;0.30;;;3.50;34.90;;;;;;5074518;28;20411;-48
2022/01/21 03:03:11;;;;;;;1.20;0.73;;;3.50;34.90;;;;;;5074513;28;20399;-48
2022/01/21 03:05:38;;;;;;;1.40;0.50;;;3.40;35.00;;;;;;5074381;28;20172;-48
2022/01/21 03:08:06;;;;;;;1.05;0.43;;;3.40;34.90;;;;;;5074445;28;20254;-49
2022/01/21 03:10:32;;;;;;;0.90;0.38;;;3.40;34.90;;;;;;5074182;28;20179;-48
2022/01/21 03:12:58;;;;;;;2.13;0.97;;;3.40;34.60;;;;;;5074196;28;20179;-49
2022/01/21 03:15:24;;;;;;;0.90;0.30;;;3.40;34.90;;;;;;5074160;28;20419;-49
2022/01/21 03:17:50;;;;;;;1.00;0.40;;;3.30;35.00;;;;;;5074180;28;20166;-48
2022/01/21 03:20:15;;;;;;;1.38;0.73;;;3.30;35.00;;;;;;5073852;28;20235;-49
2022/01/21 03:22:41;;;;;;;0.90;0.20;;;3.30;35.10;;;;;;5074061;28;20168;-48
2022/01/21 03:25:08;;;;;;;4.60;0.60;;;3.40;34.80;;;;;;5074111;28;20914;-48
2022/01/21 03:27:34;;;;;;;2.55;1.77;;;3.30;34.80;;;;;;5073816;28;20250;-48
2022/01/21 03:30:02;;;;;;;1.00;0.45;;;4.20;35.30;;;;;;5073694;28;20211;-48
2022/01/21 03:32:28;;;;;;;0.90;0.30;;;3.20;34.80;;;;;;5073846;28;20173;-48
2022/01/21 03:34:54;;;;;;;0.90;0.20;;;3.10;35.30;;;;;;5073823;28;20224;-49
2022/01/21 03:37:19;;;;;;;1.20;0.60;;;3.10;35.30;;;;;;5073788;28;20172;-48
2022/01/21 03:39:45;;;;;;;1.00;0.40;;;3.10;35.30;;;;;;5073800;28;20164;-49
2022/01/21 03:42:11;;;;;;;1.47;0.60;;;3.10;35.10;;;;;;5072471;28;20251;-49
2022/01/21 03:44:37;;;;;;;0.90;0.20;;;4.00;36.00;;;;;;5073673;28;20168;-49
2022/01/21 03:47:03;;;;;;;0.90;0.20;;;3.10;35.10;;;;;;5073669;28;20495;-49
2022/01/21 03:49:36;;;;;;;2.10;1.60;;;3.10;34.90;;;;;;5072248;28;20648;-49
2022/01/21 03:52:03;;;;;;;1.00;0.40;;;3.10;35.00;;;;;;5073644;28;20258;-48
2022/01/21 03:54:29;;;;;;;2.75;2.30;;;3.10;35.00;;;;;;5073539;28;20171;-49
2022/01/21 03:56:54;;;;;;;1.63;0.40;;;3.70;35.20;;;;;;5073621;28;20171;-49
2022/01/21 03:59:20;;;;;;;5.63;0.50;;;3.10;34.80;;;;;;5072263;28;20178;-49
2022/01/21 04:01:46;;;;;;;0.90;0.20;;;3.10;34.50;;;;;;5073623;28;20509;-49
2022/01/21 04:04:11;;;;;;;0.90;0.20;;;3.00;34.50;;;;;;5073527;28;20228;-49
2022/01/21 04:06:37;;;;;;;1.03;0.57;;;3.10;34.80;;;;;;5073473;28;20245;-49
2022/01/21 04:09:03;;;;;;;0.90;0.27;;;3.00;34.80;;;;;;5073220;28;20668;-49
2022/01/21 04:11:29;;;;;;;1.00;0.43;;;3.00;34.60;;;;;;5073425;28;20464;-49
2022/01/21 04:13:55;;;;;;;2.23;0.40;;;3.00;34.60;;;;;;5073439;28;20170;-49
2022/01/21 04:16:21;;;;;;;0.90;0.20;;;3.00;34.90;;;;;;5073304;28;20225;-49
2022/01/21 04:18:47;;;;;;;0.90;0.32;;;3.00;34.90;;;;;;5073524;28;20524;-49
2022/01/21 04:21:13;;;;;;;0.90;0.20;;;2.80;35.00;;;;;;5073150;28;20222;-49
2022/01/21 04:23:39;;;;;;;0.90;0.20;;;3.70;35.50;;;;;;5073253;28;20406;-49
2022/01/21 04:26:04;;;;;;;1.50;1.17;;;2.80;34.60;;;;;;5073306;28;20175;-49
2022/01/21 04:28:30;;;;;;;0.97;0.37;;;2.80;35.10;;;;;;5073202;28;20490;-49
2022/01/21 04:30:57;;;;;;;1.03;0.43;;;2.90;35.10;;;;;;5073394;28;20172;-49
2022/01/21 04:33:22;;;;;;;4.13;0.88;;;2.90;35.00;;;;;;5073151;28;20159;-49
2022/01/21 04:35:49;;;;;;;1.77;0.80;;;2.80;34.80;;;;;;5073164;28;20252;-49
2022/01/21 04:38:18;;;;;;;0.90;0.20;;;2.90;34.90;;;;;;5073156;28;20636;-49
2022/01/21 04:40:59;;;;;;;0.90;0.30;;;2.80;34.70;;;;;;5073051;28;20197;-49
2022/01/21 04:48:53;;;;;;;1.83;0.57;;;2.70;35.00;;;;;;5073284;28;20188;-49
2022/01/21 04:51:25;;;;;;;1.40;0.70;;;2.80;34.90;;;;;;5073679;28;20175;-49
2022/01/21 04:53:51;;;;;;;1.95;0.88;;;2.80;34.80;;;;;;5076358;28;20178;-49
2022/01/21 04:56:17;;;;;;;0.90;0.20;;;2.70;34.80;;;;;;5076781;28;20175;-48
2022/01/21 04:58:44;;;;;;;5.63;0.93;;;3.30;35.10;;;;;;5077026;28;20250;-49
2022/01/21 05:01:11;;;;;;;0.93;0.30;;;2.70;35.00;;;;;;5076641;28;20496;-48
2022/01/21 05:03:39;;;;;;;1.10;0.57;;;2.70;35.10;;;;;;5076641;28;20203;-49
2022/01/21 05:06:05;;;;;;;1.63;1.35;;;2.70;35.20;;;;;;5076482;28;20636;-49
2022/01/21 05:08:40;;;;;;;0.90;0.30;;;2.60;35.30;;;;;;5076378;28;20245;-49
2022/01/21 05:11:07;;;;;;;3.03;0.65;;;2.60;35.50;;;;;;5076795;28;20162;-49
2022/01/21 05:13:42;;;;;;;1.00;0.32;;;2.60;36.00;;;;;;5076411;28;20258;-49
2022/01/21 05:18:35;;;;;;;1.10;0.75;;;2.60;35.30;;;;;;5076564;28;20163;-48
2022/01/21 05:21:00;;;;;;;2.27;0.67;;;2.70;35.40;;;;;;5076088;28;20236;-49
2022/01/21 05:23:28;;;;;;;0.90;0.20;;;2.60;35.40;;;;;;5076167;28;20422;-48
2022/01/21 05:25:54;;;;;;;1.00;0.40;;;2.60;35.30;;;;;;5076192;28;20919;-48
2022/01/21 05:28:20;;;;;;;0.90;0.30;;;3.80;35.90;;;;;;5076162;28;20202;-48
2022/01/21 05:30:46;;;;;;;1.10;0.30;;;2.60;35.40;;;;;;5076204;28;20901;-48
2022/01/21 05:33:11;;;;;;;3.20;0.70;;;2.60;35.40;;;;;;5076042;28;20190;-48
2022/01/21 05:35:37;;;;;;;0.90;0.30;;;2.60;35.30;;;;;;5076001;28;20167;-48
2022/01/21 05:38:03;;;;;;;0.90;0.23;;;2.60;35.40;;;;;;5076246;28;20175;-51
2022/01/21 05:40:29;;;;;;;1.17;0.70;;;3.00;35.60;;;;;;5075917;28;20195;-48
2022/01/21 05:42:55;;;;;;;2.05;0.70;;;2.50;35.30;;;;;;5075802;28;20170;-48
2022/01/21 05:48:05;;;;;;;2.85;0.60;;;2.40;35.50;;;;;;5075790;28;20205;-48
2022/01/21 05:50:31;;;;;;;2.60;0.70;;;2.30;35.70;;;;;;5074452;28;20576;-48
2022/01/21 05:52:57;;;;;;;1.10;0.40;;;2.30;35.90;;;;;;5075933;28;20448;-48
2022/01/21 05:55:23;;;;;;;1.30;0.73;;;2.40;35.80;;;;;;5075563;28;20176;-48
2022/01/21 05:57:48;;;;;;;4.97;0.67;;;2.50;35.60;;;;;;5075674;28;20171;-48
2022/01/21 06:00:29;;;;;;;1.20;0.70;;;2.50;35.40;;;;;;5075588;28;20497;-49
2022/01/21 06:02:58;;;;;;;1.35;0.68;;;2.60;35.20;;;;;;5075427;28;20900;-48
2022/01/21 06:05:24;;;;;;;1.73;1.57;;;2.50;35.20;;;;;;5075484;28;20185;-48
2022/01/21 06:07:50;;;;;;;1.00;0.40;;;2.50;35.20;;;;;;5075438;28;20175;-48
2022/01/21 06:10:15;;;;;;;1.00;0.60;;;2.50;35.20;;;;;;5074064;28;20533;-48
2022/01/21 06:12:41;;;;;;;1.00;0.27;;;2.50;35.30;;;;;;5075292;28;20239;-49
2022/01/21 06:15:07;;;;;;;3.93;0.50;;;2.50;34.90;;;;;;5075281;28;20253;-48
2022/01/21 06:17:34;;;;;;;1.00;0.47;;;2.50;35.20;;;;;;5075253;28;20176;-49
2022/01/21 06:20:00;;;;;;;1.00;0.30;;;3.00;35.30;;;;;;5075226;28;20178;-49
2022/01/21 06:22:25;;;;;;;1.23;0.70;;;2.50;34.90;;;;;;5075204;28;20163;-48
2022/01/21 06:24:53;;;;;;;1.00;0.50;;;2.50;34.70;;;;;;5075305;28;20229;-48
2022/01/21 06:27:25;;;;;;;1.00;0.45;;;2.40;34.90;;;;;;5075061;28;20657;-49
2022/01/21 06:29:51;;;;;;;0.90;0.30;;;2.50;34.90;;;;;;5075200;28;20558;-49
2022/01/21 06:32:17;;;;;;;0.90;0.30;;;2.50;34.90;;;;;;5073637;28;20171;-49
2022/01/21 06:34:43;;;;;;;1.33;0.40;;;2.50;34.70;;;;;;5074723;28;20442;-48
2022/01/21 06:37:08;;;;;;;0.90;0.40;;;2.50;34.50;;;;;;5075029;28;20280;-49
2022/01/21 06:39:34;;;;;;;2.90;1.27;;;2.60;34.40;;;;;;5073436;28;20167;-49
2022/01/21 06:42:00;;;;;;;1.00;0.50;;;2.60;34.40;;;;;;5073435;28;20989;-48
2022/01/21 06:44:26;;;;;;;1.00;0.32;;;2.60;34.50;;;;;;5074559;28;20186;-48
2022/01/21 06:46:52;;;;;;;0.90;0.40;;;4.20;35.10;;;;;;5074678;28;20619;-48
2022/01/21 06:49:17;;;;;;;8.73;0.60;;;3.30;34.50;;;;;;5074461;28;20187;-49
2022/01/21 06:51:43;;;;;;;0.90;0.40;;;2.50;33.90;;;;;;5074506;28;20170;-49
2022/01/21 06:54:09;;;;;;;3.00;0.50;;;2.50;34.50;;;;;;5074512;28;20249;-49
2022/01/21 06:56:35;;;;;;;0.90;0.30;;;2.50;34.50;;;;;;5074442;28;20171;-49
2022/01/21 06:59:00;;;;;;;0.90;0.30;;;2.50;34.60;;;;;;5073018;28;20170;-49
2022/01/21 07:01:26;;;;;;;1.00;0.37;;;2.50;34.50;;;;;;5072997;28;20256;-49
2022/01/21 07:03:52;;;;;;;1.10;0.40;;;2.60;34.40;;;;;;5074548;28;20160;-49
2022/01/21 07:06:18;;;;;;;2.20;0.40;;;2.60;34.50;;;;;;5074186;28;20555;-48
2022/01/21 07:08:43;;;;;;;1.20;0.87;;;2.60;34.50;;;;;;5074375;28;20223;-49
2022/01/21 07:11:09;;;;;;;2.33;0.43;;;2.60;34.30;;;;;;5074169;28;20418;-49
2022/01/21 07:13:35;;;;;;;1.50;0.60;;;2.60;34.40;;;;;;5073889;28;20192;-49
2022/01/21 07:16:00;;;;;;;4.60;0.87;;;2.60;34.50;;;;;;5073855;28;20200;-49
2022/01/21 07:18:27;;;;;;;0.90;0.30;;;2.50;34.40;;;;;;5074021;28;20289;-49
2022/01/21 07:20:53;;;;;;;1.15;0.40;;;2.60;34.50;;;;;;5073884;28;20222;-49
2022/01/21 07:23:18;;;;;;;1.00;0.30;;;2.60;34.40;;;;;;5073840;28;20202;-48
2022/01/21 07:25:44;;;;;;;0.90;0.30;;;2.60;34.40;;;;;;5074330;28;20174;-48
2022/01/21 07:28:10;;;;;;;1.00;0.50;;;2.60;34.40;;;;;;5072554;28;20204;-48
2022/01/21 07:30:36;;;;;;;2.90;0.50;;;2.60;34.70;;;;;;5073858;28;20166;-49
2022/01/21 07:33:01;;;;;;;3.00;0.83;;;2.70;34.80;;;;;;5072539;28;20208;-49
2022/01/21 07:35:27;;;;;;;1.10;0.50;;;2.70;34.70;;;;;;5073802;28;20436;-51
2022/01/21 07:37:53;;;;;;;1.10;0.80;;;2.80;34.90;;;;;;5073758;28;20163;-51
2022/01/21 07:40:19;;;;;;;3.87;0.90;;;2.80;34.60;;;;;;5073680;28;20179;-51
2022/01/21 07:42:44;;;;;;;1.20;0.87;;;4.10;35.10;;;;;;5073609;28;20418;-51
2022/01/21 07:45:10;;;;;;;0.90;0.30;;;3.00;34.60;;;;;;5073692;28;20175;-50
2022/01/21 07:47:36;;;;;;;1.47;0.33;;;3.60;34.80;;;;;;5073701;28;20167;-51
2022/01/21 07:50:03;;;;;;;0.90;0.37;;;3.00;34.70;;;;;;5073567;28;20199;-49
2022/01/21 07:52:28;;;;;;;1.60;0.73;;;3.00;34.80;;;;;;5073474;28;20407;-49
2022/01/21 07:54:54;;;;;;;8.83;0.93;;;3.20;34.80;;;;;;5073693;28;20203;-49
2022/01/21 07:57:20;;;;;;;1.30;0.57;;;3.40;34.60;;;;;;5072173;28;20270;-49
2022/01/21 07:59:46;;;;;;;10.77;0.82;;;3.60;34.70;;;;;;5073724;28;20190;-49
2022/01/21 08:02:12;;;;;;;0.90;0.30;;;3.80;34.60;;;;;;5073477;28;20172;-49
2022/01/21 08:04:37;;;;;;;1.10;0.60;;;4.00;34.40;;;;;;5073385;28;20244;-48
2022/01/21 08:07:03;;;;;;;3.53;1.03;;;4.10;34.10;;;;;;5072094;28;20177;-48
2022/01/21 08:09:29;;;;;;;2.13;0.95;;;4.10;34.30;;;;;;5072385;28;20468;-49
2022/01/21 08:11:55;;;;;;;0.90;0.30;;;4.00;34.50;;;;;;5073323;28;20175;-49
2022/01/21 08:14:22;;;;;;;1.80;0.50;;;4.00;34.80;;;;;;5073583;28;20532;-49
2022/01/21 08:16:48;;;;;;;1.10;0.40;;;4.00;35.00;;;;;;5073285;28;20165;-49
2022/01/21 08:19:14;;;;;;;1.13;0.45;;;4.20;35.10;;;;;;5073379;28;20157;-49
2022/01/21 08:21:40;;;;;;;0.90;0.30;;;4.40;35.10;;;;;;5073010;28;20220;-49
2022/01/21 08:24:07;;;;;;;1.95;1.10;;;4.50;35.10;;;;;;5073362;28;20208;-49
2022/01/21 08:26:35;;;;;;;0.90;0.20;;;4.40;35.00;;;;;;5073007;28;20666;-48
2022/01/21 08:29:01;;;;;;;1.38;0.88;;;4.30;35.40;;;;;;5077139;28;20211;-49
2022/01/21 08:31:27;;;;;;;2.40;0.82;;;4.30;35.60;;;;;;5076042;28;20168;-49
2022/01/21 08:33:53;;;;;;;3.03;0.50;;;4.30;35.90;;;;;;5077212;28;20168;-49
2022/01/21 08:36:23;;;;;;;1.10;0.60;;;4.30;36.60;;;;;;5077387;28;20466;-49
2022/01/21 08:38:49;;;;;;;1.00;0.55;;;4.30;36.70;;;;;;5077144;28;20398;-49
2022/01/21 08:41:15;;;;;;;0.93;0.25;;;4.30;36.60;;;;;;5075713;28;20181;-49
2022/01/21 08:43:41;;;;;;;0.90;0.20;;;4.20;36.90;;;;;;5077083;28;20169;-49
2022/01/21 08:46:07;;;;;;;1.40;0.67;;;4.00;37.80;;;;;;5076949;28;20407;-48
2022/01/21 08:48:33;;;;;;;1.20;0.83;;;3.90;37.70;;;;;;5075464;28;20442;-49
2022/01/21 08:51:01;;;;;;;1.00;0.50;;;3.90;38.10;;;;;;5077076;28;20425;-49
2022/01/21 08:53:36;;;;;;;1.00;0.40;;;3.90;38.00;;;;;;5076912;28;20175;-49
2022/01/21 08:56:05;;;;;;;1.10;0.68;;;4.00;38.10;;;;;;5076946;28;20551;-49
2022/01/21 08:58:31;;;;;;;1.45;0.52;;;4.00;38.10;;;;;;5074338;28;20195;-49
2022/01/21 09:00:57;;;;;;;1.40;0.90;;;4.10;38.00;;;;;;5076691;28;20161;-49
2022/01/21 09:03:23;;;;;;;1.67;0.87;;;4.10;38.30;;;;;;5076618;28;20805;-49
2022/01/21 09:05:50;;;;;;;1.43;0.90;;;4.60;38.70;;;;;;5076519;28;20180;-49
2022/01/21 09:08:18;;;;;;;1.65;0.50;;;4.00;38.80;;;;;;5076513;28;20207;-49
2022/01/21 09:10:44;;;;;;;1.67;0.80;;;4.10;38.90;;;;;;5076710;28;20540;-49
2022/01/21 09:13:10;;;;;;;1.10;0.50;;;4.20;38.80;;;;;;5076531;28;20342;-49
2022/01/21 09:15:37;;;;;;;2.30;0.87;;;4.20;39.00;;;;;;5076365;28;20870;-49
2022/01/21 09:18:05;;;;;;;0.90;0.20;;;4.20;39.10;;;;;;5076412;28;20423;-49
2022/01/21 09:20:35;;;;;;;1.27;0.55;;;4.00;39.60;;;;;;5075644;28;20600;-49
2022/01/21 09:23:02;;;;;;;1.00;0.45;;;4.10;39.60;;;;;;5075218;28;20164;-49
2022/01/21 09:25:28;;;;;;;1.85;0.75;;;4.10;39.70;;;;;;5075212;28;20176;-49
2022/01/21 09:27:54;;;;;;;1.50;0.67;;;4.20;39.60;;;;;;5074987;28;20165;-49
2022/01/21 09:30:20;;;;;;;1.47;0.70;;;4.20;39.70;;;;;;5074913;28;20458;-49
2022/01/21 09:32:46;;;;;;;0.98;0.30;;;4.20;39.70;;;;;;5075068;28;20504;-49
2022/01/21 09:35:11;;;;;;;1.07;0.43;;;4.20;39.60;;;;;;5075001;28;20695;-49
2022/01/21 09:37:38;;;;;;;2.60;0.90;;;4.30;39.90;;;;;;5074500;28;20242;-49
2022/01/21 09:40:07;;;;;;;1.10;0.52;;;4.40;39.60;;;;;;5074854;28;20165;-49
2022/01/21 09:42:34;;;;;;;1.55;0.73;;;4.50;39.50;;;;;;5073430;28;20203;-49
2022/01/21 09:45:03;;;;;;;1.20;0.70;;;4.60;39.40;;;;;;5073464;28;20176;-49
2022/01/21 09:47:31;;;;;;;1.05;0.45;;;4.60;39.40;;;;;;5074905;28;20180;-49
2022/01/21 09:49:57;;;;;;;1.30;0.63;;;4.60;39.50;;;;;;5074671;28;20192;-49
2022/01/21 09:52:24;;;;;;;1.00;0.40;;;4.60;39.70;;;;;;5074517;28;20176;-48
2022/01/21 09:54:53;;;;;;;2.45;1.40;;;4.40;40.20;;;;;;5074603;28;20406;-49
2022/01/21 09:57:22;;;;;;;2.17;0.80;;;5.40;40.20;;;;;;5074524;28;20173;-48
2022/01/21 09:59:49;;;;;;;1.10;0.50;;;4.70;39.60;;;;;;5074709;28;20168;-49
2022/01/21 10:02:18;;;;;;;1.00;0.40;;;4.80;39.40;;;;;;5074384;28;20181;-49
2022/01/21 10:04:49;;;;;;;1.35;0.50;;;4.90;39.20;;;;;;5074667;28;20516;-49
2022/01/21 10:07:17;;;;;;;4.00;0.90;;;4.90;39.20;;;;;;5074645;28;20509;-49
2022/01/21 10:09:45;;;;;;;6.30;1.77;;;4.70;39.50;;;;;;5074220;28;20558;-49
2022/01/21 10:12:11;;;;;;;1.80;0.40;;;4.70;39.70;;;;;;5074362;28;20196;-48
2022/01/21 10:14:38;;;;;;;4.63;0.75;;;4.60;40.00;;;;;;5072992;28;20587;-48
2022/01/21 10:17:05;;;;;;;2.42;1.08;;;4.70;40.10;;;;;;5074215;28;20177;-49
2022/01/21 10:19:33;;;;;;;2.05;0.80;;;4.70;40.60;;;;;;5074189;28;20686;-48
2022/01/21 10:22:06;;;;;;;2.70;1.57;;;4.60;40.90;;;;;;5031916;28;1186588;-48
2022/01/21 10:24:35;;;;;;;3.60;2.10;;;4.70;41.10;;;;;;5075147;28;20412;-48
2022/01/21 10:27:01;;;;;;;1.10;0.50;;;4.70;41.50;;;;;;5075157;28;20181;-48
2022/01/21 10:29:41;;;;;;;0.95;0.40;;;4.70;42.40;;;;;;5074942;28;20188;-48
2022/01/21 10:32:08;;;;;;;1.10;0.60;;;4.70;44.10;;;;;;5075057;28;20230;-48
2022/01/21 10:34:43;;;;;;;2.53;1.17;;;4.30;46.00;;;;;;5073674;28;20535;-48
2022/01/21 10:37:27;;;;;;;1.10;0.45;;;4.20;45.40;;;;;;5074743;28;20173;-48
2022/01/21 10:40:08;;;;;;;4.80;1.50;;;4.20;47.00;;;;;;5074933;28;20153;-48
2022/01/21 10:42:34;;;;;;;1.70;0.77;;;4.30;45.30;;;;;;5074774;28;20636;-48
2022/01/21 10:45:01;;;;;;;12.10;1.17;;;4.50;45.30;;;;;;5074792;28;20165;-48
2022/01/21 10:47:39;;;;;;;1.80;0.88;;;4.60;44.80;;;;;;5074895;28;20177;-48
2022/01/21 10:50:23;;;;;;;1.55;1.10;;;4.60;44.80;;;;;;5073889;28;20219;-48
2022/01/21 10:52:52;;;;;;;1.15;0.60;;;4.70;45.20;;;;;;5074472;28;20171;-48
2022/01/21 10:55:45;;;;;;;3.60;2.45;;;4.70;45.10;;;;;;5073140;28;20178;-48
2022/01/21 10:58:11;;;;;;;1.30;0.65;;;4.60;45.80;;;;;;5073189;28;20181;-48
2022/01/21 11:00:37;;;;;;;2.17;1.10;;;4.50;45.70;;;;;;5074336;28;20168;-48
2022/01/21 11:03:15;;;;;;;2.13;1.00;;;4.70;45.30;;;;;;5073121;28;20540;-48
2022/01/21 11:05:45;;;;;;;2.40;1.58;;;4.70;46.30;;;;;;5074219;28;20168;-48
2022/01/21 11:08:12;;;;;;;1.35;0.93;;;4.90;45.80;;;;;;5074181;28;20509;-48
2022/01/21 11:10:40;;;;;;;1.90;0.82;;;4.80;45.30;;;;;;5074108;28;20577;-48
2022/01/21 11:13:11;;;;;;;1.77;1.50;;;4.80;45.50;;;;;;5074084;28;20623;-48
2022/01/21 11:15:47;;;;;;;2.03;1.10;;;4.90;45.60;;;;;;5072781;28;20165;-48
2022/01/21 11:18:16;;;;;;;1.00;0.45;;;5.00;45.70;;;;;;5074344;28;20516;-48
2022/01/21 11:20:46;;;;;;;1.55;1.13;;;5.00;45.40;;;;;;5073756;28;20310;-48
2022/01/21 11:23:12;;;;;;;5.72;0.93;;;5.00;45.40;;;;;;5074075;28;20253;-49
2022/01/21 11:25:49;;;;;;;1.30;0.65;;;5.50;45.20;;;;;;5073832;28;20171;-48
2022/01/21 11:28:21;;;;;;;3.55;3.25;;;5.10;44.60;;;;;;5074058;28;20160;-49
2022/01/21 11:30:48;;;;;;;1.17;0.63;;;5.30;44.10;;;;;;5074015;28;20166;-48
2022/01/21 11:33:13;;;;;;;5.90;1.52;;;5.40;43.90;;;;;;5072853;28;20168;-49
2022/01/21 11:35:39;;;;;;;1.53;0.87;;;5.40;43.90;;;;;;5073803;28;20177;-49
2022/01/21 11:38:08;;;;;;;2.10;0.83;;;5.50;43.90;;;;;;5073969;28;20415;-48
2022/01/21 11:40:34;;;;;;;1.40;1.10;;;5.50;43.60;;;;;;5073740;28;20172;-48
2022/01/21 11:43:02;;;;;;;1.88;0.90;;;5.50;43.20;;;;;;5072352;28;20263;-48
2022/01/21 11:48:49;;;;;;;1.20;0.93;;;5.60;43.30;;;;;;5073537;28;20173;-48
2022/01/21 11:50:51;;;;;;;1.63;0.90;;;5.80;43.10;;;;;;5073432;28;20192;-48
2022/01/21 11:53:46;;;;;;;1.60;1.00;;;6.10;43.10;;;;;;5073676;28;20172;-48
2022/01/21 11:56:37;;;;;;;8.55;1.75;;;6.30;42.80;;;;;;5073678;28;20716;-48
2022/01/21 11:59:31;;;;;;;1.92;1.20;;;6.30;41.90;;;;;;5073381;28;20173;-48
2022/01/21 12:02:18;;;;;;;2.53;1.20;;;6.40;41.80;;;;;;5073429;28;20160;-48
2022/01/21 12:04:48;;;;;;;1.75;1.50;;;6.80;41.80;;;;;;5073163;28;20184;-48
2022/01/21 12:07:44;;;;;;;2.33;1.10;;;7.00;40.50;;;;;;5072083;28;20222;-48
2022/01/21 12:10:18;;;;;;;1.65;0.65;;;6.90;40.00;;;;;;5073293;28;20187;-49
2022/01/21 12:13:02;;;;;;;1.58;1.10;;;6.80;39.60;;;;;;5073258;28;20156;-49
2022/01/21 12:15:34;;;;;;;1.90;0.77;;;8.10;40.20;;;;;;5073514;28;20156;-50
2022/01/21 12:18:10;;;;;;;1.88;1.67;;;6.50;39.50;;;;;;5073253;28;20525;-49
2022/01/21 12:20:36;;;;;;;1.63;0.60;;;6.40;39.80;;;;;;5073050;28;20172;-50
2022/01/21 12:23:14;;;;;;;1.20;0.63;;;6.30;39.70;;;;;;5073247;28;20615;-49
2022/01/21 12:26:11;;;;;;;1.65;0.77;;;6.30;39.70;;;;;;5073317;28;20209;-49
2022/01/21 12:28:37;;;;;;;1.40;0.95;;;6.10;39.70;;;;;;5073135;28;20204;-49
2022/01/21 12:31:04;;;;;;;1.85;1.00;;;6.20;39.40;;;;;;5073303;28;20588;-49
2022/01/21 12:34:03;;;;;;;1.90;0.80;;;6.40;39.30;;;;;;5073213;28;20306;-49
2022/01/21 12:36:34;;;;;;;1.45;0.73;;;6.50;39.20;;;;;;5071244;28;20176;-49
2022/01/21 12:41:33;;;;;;;1.20;0.77;;;7.40;38.30;;;;;;5073390;28;20176;-49
2022/01/21 12:44:08;;;;;;;1.10;0.40;;;7.90;36.90;;;;;;5071801;28;20548;-49
2022/01/21 12:46:40;;;;;;;1.30;0.75;;;8.40;35.60;;;;;;5073005;28;20173;-49
2022/01/21 12:49:36;;;;;;;1.38;0.70;;;8.60;35.00;;;;;;5071581;28;20201;-49
2022/01/21 12:57:32;;;;;;;1.30;0.50;;;10.40;31.90;;;;;;5073258;28;20165;-49
2022/01/21 13:00:09;;;;;;;1.50;0.75;;;11.60;29.80;;;;;;5071484;28;20199;-49
2022/01/21 13:02:35;;;;;;;4.65;1.42;;;12.40;28.60;;;;;;5072928;28;20604;-49
2022/01/21 13:05:16;;;;;;;3.85;0.60;;;11.40;27.50;;;;;;5072811;28;20617;-49
2022/01/21 13:08:05;;;;;;;1.10;0.40;;;10.50;27.90;;;;;;5072862;28;20689;-49
2022/01/21 13:10:31;;;;;;;1.40;0.82;;;9.90;29.30;;;;;;5072791;28;20622;-49
2022/01/21 13:15:38;;;;;;;1.85;1.00;;;12.20;27.30;;;;;;5076395;28;20381;-49
2022/01/21 13:18:05;;;;;;;2.10;0.85;;;13.20;27.30;;;;;;5074935;28;20272;-49
2022/01/21 13:20:32;;;;;;;1.30;0.70;;;13.80;24.50;;;;;;5075986;28;20167;-50
2022/01/21 13:22:58;;;;;;;2.72;1.00;;;14.30;25.70;;;;;;5076309;28;20200;-49
2022/01/21 13:25:26;;;;;;;1.70;1.00;;;14.50;24.60;;;;;;5074992;28;20305;-49
2022/01/21 13:27:55;;;;;;;2.38;1.10;;;14.20;25.90;;;;;;5076182;28;20183;-49
2022/01/21 13:30:27;;;;;;;1.83;0.80;;;13.60;24.80;;;;;;5076190;28;20381;-49
2022/01/21 13:33:09;;;;;;;1.48;0.60;;;13.10;24.10;;;;;;5076041;28;20265;-49
2022/01/21 13:35:47;;;;;;;1.20;0.60;;;12.50;24.60;;;;;;5076238;28;20605;-49
2022/01/21 13:38:18;;;;;;;5.43;1.52;;;12.30;24.40;;;;;;5076223;28;20168;-49
2022/01/21 13:40:47;;;;;;;5.20;1.15;;;12.30;23.00;;;;;;5076117;28;20156;-49
2022/01/21 13:43:17;;;;;;;1.75;0.60;;;12.40;23.90;;;;;;5075875;28;20191;-49
2022/01/21 13:45:53;;;;;;;1.10;0.40;;;12.70;24.20;;;;;;5075814;28;20168;-49
2022/01/21 13:48:19;;;;;;;1.90;0.60;;;12.90;23.50;;;;;;5075798;28;20149;-49
2022/01/21 13:50:46;;;;;;;1.75;0.93;;;12.90;22.30;;;;;;5075685;28;20543;-49
2022/01/21 13:53:13;;;;;;;3.45;0.90;;;12.80;23.90;;;;;;5075961;28;20695;-49
2022/01/21 13:55:44;;;;;;;1.52;0.60;;;12.70;23.50;;;;;;5075890;28;20256;-49
2022/01/21 13:58:16;;;;;;;3.42;1.05;;;12.50;23.80;;;;;;5075679;28;20605;-49
2022/01/21 14:01:01;;;;;;;1.45;0.65;;;11.90;23.90;;;;;;5075678;28;20182;-49
2022/01/21 14:03:28;;;;;;;2.65;0.50;;;11.30;23.90;;;;;;5075366;28;20158;-49
2022/01/21 14:06:00;;;;;;;1.10;0.50;;;10.40;24.10;;;;;;5075720;28;20168;-49
2022/01/21 14:08:33;;;;;;;1.10;0.50;;;10.10;25.70;;;;;;5075507;28;20166;-49
2022/01/21 14:11:08;;;;;;;1.08;0.40;;;9.70;25.90;;;;;;5075304;28;20165;-49